This is the latest recevied weather packets stored in our database for station/object W9LRT-WX. If no packets are shown the sender has not sent any weather packets the latest 10 day(s).
| Time | Temp. | Humidity | Pressure | Rain* | Wind** | Luminosity | Snow |
|---|---|---|---|---|---|---|---|
| 1777727070 | 5° C | 75% | 1018 hPa | 0 mm | - | 327 W/m² | - |
| 1777726170 | 4.44° C | 78% | 1018 hPa | 0 mm | - | 269 W/m² | - |
| 1777725272 | 3.89° C | 80% | 1017.9 hPa | 0 mm | - | 220 W/m² | - |
| 1777724369 | 3.33° C | 83% | 1018 hPa | 0 mm | - | 172 W/m² | - |
| 1777723470 | 2.78° C | 83% | 1018 hPa | 0 mm | - | 125 W/m² | - |
| 1777722572 | 2.22° C | 86% | 1017.8 hPa | 0 mm | - | 139 W/m² | - |
| 1777721669 | 1.11° C | 86% | 1017.7 hPa | 0 mm | - | 90 W/m² | - |
| 1777720772 | 0.56° C | 86% | 1017.6 hPa | 0 mm | - | 49 W/m² | - |
| 1777719870 | 0.56° C | 87% | 1017.5 hPa | 0 mm | - | 19 W/m² | - |
| 1777718970 | 0° C | 87% | 1017.4 hPa | 0 mm | - | 7 W/m² | - |
| 1777718069 | 0° C | 86% | 1017.4 hPa | 0 mm | - | 0 W/m² | - |
| 1777717169 | 0° C | 86% | 1017.4 hPa | 0 mm | - | 0 W/m² | - |
| 1777716268 | 0° C | 87% | 1017.4 hPa | 0 mm | - | 0 W/m² | - |
| 1777715364 | 0° C | 87% | 1017.4 hPa | 0 mm | - | 0 W/m² | - |
| 1777714465 | -0.56° C | 87% | 1017.3 hPa | 0 mm | - | 0 W/m² | - |
| 1777713564 | 0° C | 87% | 1017.3 hPa | 0 mm | - | 0 W/m² | - |
| 1777712663 | 0° C | 87% | 1017.3 hPa | 0 mm | - | 0 W/m² | - |
| 1777711761 | 0° C | 87% | 1017.3 hPa | 0 mm | - | 0 W/m² | - |
| 1777710861 | 0° C | 88% | 1017.4 hPa | 0 mm | - | 0 W/m² | - |
| 1777709959 | 0° C | 88% | 1017.4 hPa | 0 mm | - | 0 W/m² | - |
| 1777709059 | -0.56° C | 87% | 1017.3 hPa | 0 mm | - | 0 W/m² | - |
| 1777708159 | 0° C | 87% | 1017.2 hPa | 0 mm | - | 0 W/m² | - |
| 1777707257 | 0° C | 87% | 1017.3 hPa | 0 mm | - | 0 W/m² | - |
| 1777706355 | 0° C | 86% | 1017.2 hPa | 0 mm | - | 0 W/m² | - |
| 1777705455 | 0° C | 85% | 1017.2 hPa | 0 mm | - | 0 W/m² | - |
* Rain latest hour (hover to see other rain measurements)
** Current wind speed in m/s (hover to see current wind gust speed)